createdAt,value
2023-05-20T00:00:11.125Z,10.68
2023-05-20T00:02:40.936Z,14.18
2023-05-20T00:05:09.707Z,12.20
2023-05-20T00:07:37.748Z,14.63
2023-05-20T00:10:06.158Z,13.50
2023-05-20T00:12:35.048Z,9.27
2023-05-20T00:15:03.182Z,15.00
2023-05-20T00:17:32.317Z,9.30
2023-05-20T00:20:01.685Z,8.00
2023-05-20T00:22:29.586Z,11.57
2023-05-20T00:24:57.565Z,13.18
2023-05-20T00:27:25.625Z,12.27
2023-05-20T00:29:53.765Z,12.48
2023-05-20T00:32:21.883Z,12.27
2023-05-20T00:34:57.879Z,10.32
2023-05-20T00:37:27.714Z,11.63
2023-05-20T00:39:55.873Z,11.13
2023-05-20T00:42:24.094Z,15.32
2023-05-20T00:44:52.490Z,12.30
2023-05-20T00:47:22.341Z,9.48
2023-05-20T00:49:52.493Z,10.30
2023-05-20T00:52:20.856Z,11.00
2023-05-20T00:54:50.985Z,10.57
2023-05-20T00:57:20.502Z,11.25
2023-05-20T00:59:48.460Z,14.85
2023-05-20T01:02:16.696Z,12.60
2023-05-20T01:04:47.180Z,11.10
2023-05-20T01:07:17.463Z,9.80
2023-05-20T01:09:45.986Z,11.82
2023-05-20T01:12:20.763Z,11.68
2023-05-20T01:14:51.342Z,10.32
2023-05-20T01:17:22.207Z,11.95
2023-05-20T01:19:50.861Z,10.80
2023-05-20T01:22:18.913Z,14.23
2023-05-20T01:24:49.246Z,15.05
2023-05-20T01:27:17.148Z,11.38
2023-05-20T01:29:45.930Z,13.45
2023-05-20T01:32:20.195Z,12.48
2023-05-20T01:34:50.986Z,11.05
2023-05-20T01:37:20.299Z,11.50
2023-05-20T01:39:51.390Z,14.35
2023-05-20T01:42:20.710Z,13.10
2023-05-20T01:44:48.804Z,10.68
2023-05-20T01:47:16.697Z,15.35
2023-05-20T01:49:46.127Z,13.25
2023-05-20T01:52:14.186Z,11.85
2023-05-20T01:54:42.124Z,13.57
2023-05-20T01:57:11.415Z,12.98
2023-05-20T01:59:39.676Z,17.05
2023-05-20T02:02:07.602Z,11.27
2023-05-20T02:04:35.549Z,11.27
2023-05-20T02:07:03.477Z,10.68
2023-05-20T02:09:31.489Z,10.70
2023-05-20T02:11:59.471Z,15.23
2023-05-20T02:14:28.724Z,13.15
2023-05-20T02:16:56.604Z,15.10
2023-05-20T02:19:24.680Z,12.48
2023-05-20T02:21:52.706Z,10.70
2023-05-20T02:24:21.529Z,11.95
2023-05-20T02:26:51.170Z,14.82
2023-05-20T02:29:19.993Z,15.57
2023-05-20T02:31:49.570Z,12.40
2023-05-20T02:34:19.181Z,13.68
2023-05-20T02:36:47.212Z,13.80
2023-05-20T02:39:15.613Z,12.73
2023-05-20T02:41:43.656Z,12.38
2023-05-20T02:44:11.657Z,12.40
2023-05-20T02:46:39.693Z,13.32
2023-05-20T02:49:09.074Z,13.93
2023-05-20T02:51:37.546Z,10.68
2023-05-20T02:54:05.608Z,12.38
2023-05-20T02:56:34.347Z,13.13
2023-05-20T02:59:03.659Z,16.80
2023-05-20T03:01:33.757Z,13.68
2023-05-20T03:04:02.039Z,9.77
2023-05-20T03:06:32.031Z,14.40
2023-05-20T03:09:00.105Z,14.32
2023-05-20T03:11:28.158Z,15.05
2023-05-20T03:13:56.074Z,13.93
2023-05-20T03:16:25.223Z,13.43
2023-05-20T03:18:54.615Z,13.18
2023-05-20T03:21:23.925Z,12.75
2023-05-20T03:23:53.390Z,11.48
2023-05-20T03:26:21.737Z,16.70
2023-05-20T03:28:49.688Z,13.77
2023-05-20T03:31:17.732Z,16.83
2023-05-20T03:33:46.285Z,14.63
2023-05-20T03:36:14.238Z,13.68
2023-05-20T03:38:42.197Z,14.27
2023-05-20T03:41:11.800Z,15.60
2023-05-20T03:43:39.985Z,11.77
2023-05-20T03:46:07.931Z,15.73
2023-05-20T03:48:36.120Z,14.90
2023-05-20T03:51:04.092Z,16.17
2023-05-20T03:53:32.178Z,13.90
2023-05-20T03:56:00.192Z,12.52
2023-05-20T03:58:29.733Z,12.80
2023-05-20T04:00:57.704Z,13.40
2023-05-20T04:03:26.104Z,19.75
2023-05-20T04:05:54.159Z,12.02
2023-05-20T04:08:22.151Z,14.70
2023-05-20T04:10:50.084Z,14.57
2023-05-20T04:13:18.018Z,12.25
2023-05-20T04:15:48.191Z,13.23
2023-05-20T04:18:16.209Z,14.23
2023-05-20T04:20:44.766Z,12.02
2023-05-20T04:23:12.722Z,12.00
2023-05-20T04:25:41.245Z,14.25
2023-05-20T04:28:10.630Z,12.10
2023-05-20T04:30:38.709Z,15.48
2023-05-20T04:33:08.119Z,13.38
2023-05-20T04:35:37.659Z,14.70
2023-05-20T04:38:05.633Z,12.13
2023-05-20T04:40:33.983Z,15.00
2023-05-20T04:43:01.939Z,13.95
2023-05-20T04:45:29.942Z,13.40
2023-05-20T04:47:58.028Z,15.20
2023-05-20T04:50:27.425Z,13.85
2023-05-20T04:52:55.627Z,16.20
2023-05-20T04:55:25.050Z,12.80
2023-05-20T04:57:52.989Z,14.18
2023-05-20T05:00:20.956Z,13.32
2023-05-20T05:02:48.933Z,18.67
2023-05-20T05:05:17.097Z,16.13
2023-05-20T05:07:46.417Z,14.52
2023-05-20T05:10:15.691Z,15.10
2023-05-20T05:12:43.631Z,17.40
2023-05-20T05:15:12.254Z,14.10
2023-05-20T05:17:40.277Z,14.52
2023-05-20T05:20:09.916Z,13.23
2023-05-20T05:22:39.664Z,13.75
2023-05-20T05:25:10.607Z,13.15
2023-05-20T05:27:38.785Z,13.02
2023-05-20T05:30:08.250Z,16.65
2023-05-20T05:32:37.652Z,16.35
2023-05-20T05:35:08.128Z,13.05
2023-05-20T05:37:36.389Z,17.33
2023-05-20T05:40:04.620Z,12.00
2023-05-20T05:42:33.950Z,14.43
2023-05-20T05:45:01.890Z,15.32
2023-05-20T05:47:32.590Z,15.07
2023-05-20T05:50:00.910Z,14.27
2023-05-20T05:52:28.907Z,15.27
2023-05-20T05:54:56.899Z,14.27
2023-05-20T05:57:24.957Z,11.68
2023-05-20T05:59:54.311Z,12.20
2023-05-20T06:02:23.254Z,14.85
2023-05-20T06:04:51.264Z,14.27
2023-05-20T06:07:19.264Z,16.77
2023-05-20T06:09:47.280Z,12.50
2023-05-20T06:12:15.259Z,15.15
2023-05-20T06:14:43.218Z,13.48
2023-05-20T06:17:12.569Z,12.25
2023-05-20T06:19:40.696Z,14.65
2023-05-20T06:22:09.124Z,13.27
2023-05-20T06:24:37.109Z,11.35
2023-05-20T06:27:05.224Z,11.90
2023-05-20T06:29:33.152Z,13.77
2023-05-20T06:32:01.372Z,14.27
2023-05-20T06:34:30.649Z,11.23
2023-05-20T06:36:58.649Z,14.35
2023-05-20T06:39:26.718Z,12.52
2023-05-20T06:41:54.717Z,10.90
2023-05-20T06:44:22.754Z,12.35
2023-05-20T06:46:50.806Z,10.98
2023-05-20T06:49:18.850Z,11.27
2023-05-20T06:51:48.117Z,12.40
2023-05-20T06:54:16.042Z,11.13
2023-05-20T06:56:44.315Z,11.80
2023-05-20T06:59:12.280Z,14.63
2023-05-20T07:01:40.377Z,11.40
2023-05-20T07:04:08.377Z,9.88
2023-05-20T07:06:36.342Z,10.30
2023-05-20T07:09:05.689Z,11.27
2023-05-20T07:11:33.658Z,12.65
2023-05-20T07:14:01.639Z,10.38
2023-05-20T07:16:32.476Z,7.75
2023-05-20T07:19:00.490Z,7.40
2023-05-20T07:21:28.529Z,12.93
2023-05-20T07:23:56.432Z,7.85
2023-05-20T07:26:25.785Z,11.70
2023-05-20T07:28:53.815Z,10.10
2023-05-20T07:31:21.768Z,11.20
2023-05-20T07:33:49.675Z,11.13
2023-05-20T07:36:17.626Z,8.50
2023-05-20T07:38:53.055Z,8.95
2023-05-20T07:41:31.648Z,9.02
2023-05-20T07:43:59.663Z,7.78
2023-05-20T07:46:27.803Z,11.00
2023-05-20T07:48:55.812Z,7.07
2023-05-20T07:51:24.394Z,9.93
2023-05-20T07:53:52.450Z,9.52
2023-05-20T07:56:20.472Z,9.73
2023-05-20T07:58:55.680Z,12.40
2023-05-20T08:01:23.643Z,10.65
2023-05-20T08:03:52.001Z,9.55
2023-05-20T08:06:20.571Z,9.80
2023-05-20T08:08:48.548Z,7.65
2023-05-20T08:11:16.501Z,7.93
2023-05-20T08:13:44.393Z,9.98
2023-05-20T08:16:13.784Z,6.00
2023-05-20T08:18:41.769Z,8.07
2023-05-20T08:21:09.921Z,6.40
2023-05-20T08:23:40.424Z,7.97
2023-05-20T08:26:08.761Z,6.70
2023-05-20T08:28:37.905Z,7.43
2023-05-20T08:31:06.077Z,7.03
2023-05-20T08:33:35.509Z,5.88
2023-05-20T08:36:03.544Z,7.75
2023-05-20T08:38:31.552Z,8.32
2023-05-20T08:41:00.421Z,7.05
2023-05-20T08:43:30.190Z,6.93
2023-05-20T08:45:58.147Z,6.00
2023-05-20T08:48:27.764Z,6.63
2023-05-20T08:50:59.277Z,7.35
2023-05-20T08:53:28.017Z,6.87
2023-05-20T08:56:00.864Z,6.82
2023-05-20T08:58:29.591Z,4.60
2023-05-20T09:00:58.779Z,8.63
2023-05-20T09:03:26.995Z,8.02
2023-05-20T09:06:05.310Z,5.50
2023-05-20T09:08:34.088Z,4.88
2023-05-20T09:11:02.548Z,4.00
2023-05-20T09:13:32.582Z,6.80
2023-05-20T09:16:02.023Z,6.68
2023-05-20T09:18:30.989Z,4.80
2023-05-20T09:21:06.950Z,6.55
2023-05-20T09:23:37.665Z,6.40
2023-05-20T09:26:05.779Z,7.18
2023-05-20T09:28:36.008Z,5.65
2023-05-20T09:31:03.945Z,3.95
2023-05-20T09:33:32.475Z,6.57
2023-05-20T09:36:09.528Z,7.28
2023-05-20T09:38:40.440Z,6.18
2023-05-20T09:41:09.760Z,6.82
2023-05-20T09:43:37.860Z,5.07
2023-05-20T09:46:06.054Z,5.38
2023-05-20T09:48:36.339Z,5.35
2023-05-20T09:51:08.099Z,6.40
2023-05-20T09:53:36.917Z,5.45
2023-05-20T09:56:05.261Z,4.95
2023-05-20T09:58:36.646Z,7.75
2023-05-20T10:01:04.808Z,4.83
2023-05-20T10:03:34.148Z,5.95
2023-05-20T10:06:21.391Z,7.05
2023-05-20T10:09:05.906Z,3.53
2023-05-20T10:11:41.328Z,4.07
2023-05-20T10:14:29.940Z,5.35
2023-05-20T10:17:08.774Z,6.07
2023-05-20T10:19:37.107Z,5.97
2023-05-20T10:22:08.592Z,4.85
2023-05-20T10:24:38.300Z,3.80
2023-05-20T10:27:11.534Z,3.53
2023-05-20T10:32:26.114Z,5.03
2023-05-20T10:34:55.596Z,5.70
2023-05-20T10:37:30.061Z,4.15
2023-05-20T10:40:12.112Z,6.88
2023-05-20T10:42:40.402Z,4.88
2023-05-20T10:45:09.775Z,4.38
2023-05-20T10:47:38.224Z,3.70
2023-05-20T10:50:07.699Z,5.60
2023-05-20T10:52:38.165Z,7.53
2023-05-20T10:55:07.564Z,7.85
2023-05-20T10:57:35.798Z,7.32
2023-05-20T11:00:10.803Z,4.72
2023-05-20T11:02:39.580Z,4.45
2023-05-20T11:05:12.108Z,4.22
2023-05-20T11:07:41.466Z,5.22
2023-05-20T11:10:11.042Z,5.45
2023-05-20T11:12:40.110Z,4.80
2023-05-20T11:15:09.107Z,4.72
2023-05-20T11:17:37.175Z,10.02
2023-05-20T11:20:05.719Z,12.60
2023-05-20T11:22:33.722Z,4.45
2023-05-20T11:25:07.250Z,5.63
2023-05-20T11:27:35.205Z,7.78
2023-05-20T11:30:04.009Z,6.20
2023-05-20T11:32:32.386Z,3.65
2023-05-20T11:35:00.389Z,5.32
2023-05-20T11:37:28.349Z,3.38
2023-05-20T11:40:08.991Z,4.00
2023-05-20T11:42:37.401Z,8.75
2023-05-20T11:45:06.064Z,5.35
2023-05-20T11:47:34.002Z,4.03
2023-05-20T11:50:02.817Z,6.45
2023-05-20T11:52:30.815Z,5.35
2023-05-20T11:54:58.792Z,4.53
2023-05-20T11:57:28.105Z,8.52
2023-05-20T11:59:56.087Z,5.18
2023-05-20T12:02:24.127Z,5.20
2023-05-20T12:04:52.425Z,7.45
2023-05-20T12:07:20.380Z,5.47
2023-05-20T12:09:48.307Z,5.38
2023-05-20T12:12:16.604Z,4.07
2023-05-20T12:14:46.019Z,10.95
2023-05-20T12:17:13.953Z,6.28
2023-05-20T12:19:42.260Z,6.13
2023-05-20T12:22:10.329Z,7.68
2023-05-20T12:24:38.323Z,5.18
2023-05-20T12:27:07.731Z,5.00
2023-05-20T12:29:37.468Z,4.53
2023-05-20T12:32:07.991Z,5.70
2023-05-20T12:34:36.046Z,6.40
2023-05-20T12:37:04.102Z,6.70
2023-05-20T12:39:32.048Z,8.80
2023-05-20T12:42:00.013Z,9.00
2023-05-20T12:44:28.272Z,8.60
2023-05-20T12:46:56.468Z,5.07
2023-05-20T12:49:25.794Z,4.40
2023-05-20T12:51:53.826Z,4.13
2023-05-20T12:54:21.824Z,4.55
2023-05-20T12:56:49.856Z,5.70
2023-05-20T12:59:17.839Z,10.30
2023-05-20T13:01:46.428Z,6.22
2023-05-20T13:04:14.469Z,5.82
2023-05-20T13:06:44.123Z,5.40
2023-05-20T13:09:12.579Z,5.18
2023-05-20T13:11:40.942Z,5.05
2023-05-20T13:14:08.876Z,5.15
2023-05-20T13:16:36.878Z,4.40
2023-05-20T13:19:04.892Z,5.53
2023-05-20T13:21:32.875Z,4.97
2023-05-20T13:24:02.581Z,5.15
2023-05-20T13:26:30.740Z,3.42
2023-05-20T13:28:58.733Z,5.05
2023-05-20T13:31:26.724Z,3.33
2023-05-20T13:33:55.217Z,4.47
2023-05-20T13:36:23.253Z,5.82
2023-05-20T13:38:51.481Z,5.05
2023-05-20T13:41:20.821Z,6.78
2023-05-20T13:43:48.755Z,5.63
2023-05-20T13:46:18.253Z,4.78
2023-05-20T13:48:46.404Z,4.50
2023-05-20T13:51:14.465Z,4.22
2023-05-20T13:53:42.498Z,6.07
2023-05-20T13:56:10.541Z,5.38
2023-05-20T13:58:40.443Z,3.80
2023-05-20T14:01:08.422Z,3.83
2023-05-20T14:03:37.459Z,3.95
2023-05-20T14:06:05.941Z,3.85
2023-05-20T14:08:34.175Z,3.30
2023-05-20T14:11:02.144Z,4.03
2023-05-20T14:13:30.101Z,6.18
2023-05-20T14:15:59.533Z,5.15
2023-05-20T14:18:27.593Z,3.30
2023-05-20T14:20:56.362Z,4.18
2023-05-20T14:23:24.413Z,6.65
2023-05-20T14:25:52.385Z,6.88
2023-05-20T14:28:20.359Z,4.57
2023-05-20T14:30:48.302Z,5.93
2023-05-20T14:33:17.600Z,3.92
2023-05-20T14:35:45.577Z,6.55
2023-05-20T14:38:13.552Z,4.25
2023-05-20T14:40:41.560Z,8.02
2023-05-20T14:43:09.541Z,5.72
2023-05-20T14:45:37.469Z,5.95
2023-05-20T14:48:06.887Z,5.65
2023-05-20T14:50:36.578Z,6.18
2023-05-20T14:53:05.538Z,5.07
2023-05-20T14:55:33.606Z,5.28
2023-05-20T14:58:01.787Z,6.72
2023-05-20T15:00:29.770Z,5.65
2023-05-20T15:02:57.794Z,6.10
2023-05-20T15:05:26.133Z,7.20
2023-05-20T15:07:55.533Z,5.68
2023-05-20T15:10:23.594Z,6.85
2023-05-20T15:12:53.358Z,3.67
2023-05-20T15:15:22.132Z,4.75
2023-05-20T15:17:50.399Z,3.20
2023-05-20T15:20:18.748Z,4.18
2023-05-20T15:22:48.119Z,4.63
2023-05-20T15:25:17.642Z,5.80
2023-05-20T15:27:45.671Z,5.60
2023-05-20T15:30:15.067Z,3.75
2023-05-20T15:32:43.833Z,5.28
2023-05-20T15:35:11.830Z,5.03
2023-05-20T15:37:39.915Z,6.28
2023-05-20T15:40:09.959Z,5.63
2023-05-20T15:42:39.360Z,4.13
2023-05-20T15:45:08.248Z,2.65
2023-05-20T15:47:36.760Z,9.80
2023-05-20T15:50:08.415Z,4.93
2023-05-20T15:52:36.985Z,5.23
2023-05-20T15:55:05.493Z,7.88
2023-05-20T15:57:33.660Z,5.65
2023-05-20T16:00:05.746Z,5.03
2023-05-20T16:02:36.238Z,3.58
2023-05-20T16:05:05.026Z,4.72
2023-05-20T16:07:33.192Z,4.82
2023-05-20T16:10:01.460Z,7.47
2023-05-20T16:12:29.826Z,5.47
2023-05-20T16:14:57.794Z,4.57
2023-05-20T16:17:27.094Z,3.42
2023-05-20T16:19:55.281Z,4.75
2023-05-20T16:22:23.506Z,5.88
2023-05-20T16:24:51.522Z,4.68
2023-05-20T16:27:19.456Z,3.83
2023-05-20T16:29:47.417Z,4.10
2023-05-20T16:32:15.465Z,6.65
2023-05-20T16:34:44.744Z,3.13
2023-05-20T16:37:13.082Z,5.47
2023-05-20T16:39:41.325Z,4.10
2023-05-20T16:42:09.844Z,5.25
2023-05-20T16:44:39.058Z,4.97
2023-05-20T16:47:07.958Z,4.43
2023-05-20T16:49:36.041Z,4.75
2023-05-20T16:52:06.024Z,6.00
2023-05-20T16:54:36.196Z,6.63
2023-05-20T16:57:04.551Z,4.78
2023-05-20T16:59:34.911Z,4.80
2023-05-20T17:02:02.870Z,5.47
2023-05-20T17:04:31.162Z,5.00
2023-05-20T17:07:01.627Z,5.15
2023-05-20T17:09:31.538Z,8.63
2023-05-20T17:11:59.458Z,9.75
2023-05-20T17:14:27.387Z,7.13
2023-05-20T17:16:55.346Z,6.32
2023-05-20T17:19:23.474Z,7.35
2023-05-20T17:21:51.497Z,5.82
2023-05-20T17:24:19.453Z,5.22
2023-05-20T17:26:48.772Z,5.82
2023-05-20T17:29:16.748Z,5.88
2023-05-20T17:31:45.489Z,8.07
2023-05-20T17:34:13.782Z,6.93
2023-05-20T17:36:41.771Z,5.13
2023-05-20T17:39:09.867Z,5.88
2023-05-20T17:41:37.901Z,5.65
2023-05-20T17:44:07.829Z,11.15
2023-05-20T17:46:35.891Z,8.90
2023-05-20T17:49:03.898Z,9.60
2023-05-20T17:51:31.939Z,7.43
2023-05-20T17:54:02.623Z,7.35
2023-05-20T17:56:30.860Z,6.85
2023-05-20T17:58:58.851Z,7.95
2023-05-20T18:01:28.290Z,6.13
2023-05-20T18:03:59.940Z,7.00
2023-05-20T18:06:29.970Z,8.90
2023-05-20T18:08:59.925Z,9.50
2023-05-20T18:11:27.925Z,10.70
2023-05-20T18:13:58.625Z,6.72
2023-05-20T18:16:28.874Z,7.82
2023-05-20T18:18:57.449Z,8.80
2023-05-20T18:21:26.412Z,9.07
2023-05-20T18:23:54.502Z,8.68
2023-05-20T18:26:22.630Z,6.95
2023-05-20T18:28:51.002Z,9.23
2023-05-20T18:31:19.066Z,6.88
2023-05-20T18:33:48.355Z,5.65
2023-05-20T18:36:16.336Z,6.72
2023-05-20T18:38:44.990Z,6.07
2023-05-20T18:41:14.116Z,6.57
2023-05-20T18:43:42.255Z,7.45
2023-05-20T18:46:11.312Z,10.05
2023-05-20T18:48:39.316Z,6.43
2023-05-20T18:51:08.750Z,6.68
2023-05-20T18:53:36.949Z,6.28
2023-05-20T18:56:05.748Z,9.20
2023-05-20T18:58:33.746Z,9.27
2023-05-20T19:01:02.900Z,8.55
2023-05-20T19:03:30.892Z,8.98
2023-05-20T19:05:58.915Z,5.63
2023-05-20T19:08:28.333Z,6.20
2023-05-20T19:10:56.272Z,7.88
2023-05-20T19:13:24.967Z,8.23
2023-05-20T19:15:52.936Z,8.35
2023-05-20T19:18:21.428Z,7.10
2023-05-20T19:20:49.551Z,6.13
2023-05-20T19:23:17.431Z,7.05
2023-05-20T19:25:46.736Z,8.23
2023-05-20T19:28:14.778Z,7.55
2023-05-20T19:30:42.956Z,7.63
2023-05-20T19:33:11.047Z,8.77
2023-05-20T19:35:39.439Z,9.05
2023-05-20T19:38:07.413Z,9.18
2023-05-20T19:40:36.755Z,9.48
2023-05-20T19:43:06.220Z,6.95
2023-05-20T19:45:36.246Z,7.00
2023-05-20T19:48:05.400Z,7.25
2023-05-20T19:50:34.049Z,9.82
2023-05-20T19:53:06.185Z,6.75
2023-05-20T19:58:03.028Z,7.43
2023-05-20T20:00:32.371Z,5.57
2023-05-20T20:03:03.194Z,8.32
2023-05-20T20:05:31.262Z,6.90
2023-05-20T20:07:59.258Z,6.35
2023-05-20T20:10:27.332Z,8.68
2023-05-20T20:12:55.302Z,7.20
2023-05-20T20:15:24.193Z,8.13
2023-05-20T20:17:54.623Z,8.10
2023-05-20T20:20:23.443Z,6.40
2023-05-20T20:22:51.444Z,10.00
2023-05-20T20:25:20.397Z,7.80
2023-05-20T20:27:48.535Z,7.15
2023-05-20T20:30:16.975Z,6.15
2023-05-20T20:32:44.939Z,11.68
2023-05-20T20:35:14.414Z,7.28
2023-05-20T20:37:42.440Z,6.05
2023-05-20T20:40:13.568Z,6.15
2023-05-20T20:42:45.185Z,8.85
2023-05-20T20:45:13.475Z,8.27
2023-05-20T20:47:41.455Z,5.70
2023-05-20T20:50:11.421Z,9.52
2023-05-20T20:52:42.645Z,9.00
2023-05-20T20:55:11.224Z,7.90
2023-05-20T20:57:39.365Z,6.40
2023-05-20T21:00:16.379Z,6.70
2023-05-20T21:02:44.450Z,6.65
2023-05-20T21:05:12.421Z,7.00
2023-05-20T21:07:44.432Z,8.15
2023-05-20T21:10:12.460Z,7.97
2023-05-20T21:12:40.408Z,7.63
2023-05-20T21:15:09.898Z,6.85
2023-05-20T21:17:37.772Z,7.47
2023-05-20T21:20:07.511Z,7.78
2023-05-20T21:22:35.540Z,8.23
2023-05-20T21:25:05.323Z,9.25
2023-05-20T21:27:33.230Z,8.13
2023-05-20T21:30:01.249Z,7.32
2023-05-20T21:32:30.476Z,6.45
2023-05-20T21:34:58.584Z,5.97
2023-05-20T21:37:26.543Z,6.75
2023-05-20T21:39:54.543Z,8.13
2023-05-20T21:42:23.861Z,7.78
2023-05-20T21:44:51.813Z,10.20
2023-05-20T21:47:20.677Z,6.28
2023-05-20T21:49:49.177Z,5.50
2023-05-20T21:52:17.127Z,7.70
2023-05-20T21:54:45.036Z,10.40
2023-05-20T21:57:13.077Z,8.05
2023-05-20T21:59:42.376Z,7.70
2023-05-20T22:02:10.437Z,7.32
2023-05-20T22:04:38.499Z,6.70
2023-05-20T22:07:06.895Z,8.75
2023-05-20T22:09:34.808Z,6.88
2023-05-20T22:12:03.666Z,8.13
2023-05-20T22:14:31.667Z,8.80
2023-05-20T22:17:00.934Z,6.20
2023-05-20T22:19:30.534Z,8.77
2023-05-20T22:21:58.564Z,6.70
2023-05-20T22:24:26.512Z,7.95
2023-05-20T22:26:54.400Z,7.90
2023-05-20T22:29:22.356Z,6.80
2023-05-20T22:31:50.306Z,8.15
2023-05-20T22:34:19.650Z,5.97
2023-05-20T22:36:49.077Z,6.63
2023-05-20T22:39:16.978Z,7.60
2023-05-20T22:41:44.903Z,5.57
2023-05-20T22:44:12.904Z,8.50
2023-05-20T22:46:40.864Z,6.82
2023-05-20T22:49:10.208Z,7.53
2023-05-20T22:51:39.516Z,7.05
2023-05-20T22:54:07.735Z,6.85
2023-05-20T22:56:37.007Z,7.70
2023-05-20T22:59:04.910Z,9.25
2023-05-20T23:01:32.968Z,7.25
2023-05-20T23:04:01.016Z,7.97
2023-05-20T23:06:28.940Z,8.25
2023-05-20T23:08:58.207Z,7.60
2023-05-20T23:11:26.480Z,8.70
2023-05-20T23:13:54.438Z,7.43
2023-05-20T23:16:22.503Z,7.97
2023-05-20T23:18:50.601Z,9.55
2023-05-20T23:21:19.388Z,8.15
2023-05-20T23:23:47.395Z,8.23
2023-05-20T23:26:16.711Z,11.55
2023-05-20T23:28:44.576Z,7.97
2023-05-20T23:31:14.708Z,8.85
2023-05-20T23:33:42.902Z,11.40
2023-05-20T23:36:12.432Z,7.95
2023-05-20T23:38:40.465Z,7.93
2023-05-20T23:41:08.390Z,9.93
2023-05-20T23:43:37.708Z,7.90
2023-05-20T23:46:05.819Z,8.02
2023-05-20T23:48:33.733Z,8.80
2023-05-20T23:51:01.591Z,11.23
2023-05-20T23:53:29.573Z,9.27
2023-05-20T23:55:57.439Z,8.60
2023-05-20T23:58:25.517Z,11.07
